sensor_id;sensor_type;location;lat;lon;timestamp;temperature;humidity
31979;DHT22;18502;43.574;1.276;2023-01-23T07:13:12;-0.80;92.00
31979;DHT22;18502;43.574;1.276;2023-01-23T07:15:37;-0.80;91.90
31979;DHT22;18502;43.574;1.276;2023-01-23T07:18:03;-0.80;92.00
31979;DHT22;18502;43.574;1.276;2023-01-23T07:20:29;-0.80;92.00
31979;DHT22;18502;43.574;1.276;2023-01-23T07:22:55;-0.80;92.00
31979;DHT22;18502;43.574;1.276;2023-01-23T07:25:23;-0.80;92.00
31979;DHT22;18502;43.574;1.276;2023-01-23T07:27:49;-0.80;92.20
31979;DHT22;18502;43.574;1.276;2023-01-23T07:30:15;-0.80;92.20
31979;DHT22;18502;43.574;1.276;2023-01-23T07:32:42;-0.80;92.10
31979;DHT22;18502;43.574;1.276;2023-01-23T07:35:08;-0.80;92.20
31979;DHT22;18502;43.574;1.276;2023-01-23T07:37:34;-0.80;92.10
31979;DHT22;18502;43.574;1.276;2023-01-23T07:39:59;-0.80;92.10
31979;DHT22;18502;43.574;1.276;2023-01-23T07:42:25;-0.80;92.10
31979;DHT22;18502;43.574;1.276;2023-01-23T07:44:51;-0.80;92.10
31979;DHT22;18502;43.574;1.276;2023-01-23T07:47:17;-0.80;92.10
31979;DHT22;18502;43.574;1.276;2023-01-23T07:49:42;-0.80;92.10
31979;DHT22;18502;43.574;1.276;2023-01-23T07:52:08;-0.70;92.00
31979;DHT22;18502;43.574;1.276;2023-01-23T07:54:34;-0.80;92.20
31979;DHT22;18502;43.574;1.276;2023-01-23T07:56:59;-0.80;92.20
31979;DHT22;18502;43.574;1.276;2023-01-23T07:59:25;-0.80;92.10
31979;DHT22;18502;43.574;1.276;2023-01-23T08:01:51;-0.80;92.20
31979;DHT22;18502;43.574;1.276;2023-01-23T08:04:18;-0.70;92.20
31979;DHT22;18502;43.574;1.276;2023-01-23T08:06:44;-0.70;92.30
31979;DHT22;18502;43.574;1.276;2023-01-23T08:09:10;-0.70;92.30
31979;DHT22;18502;43.574;1.276;2023-01-23T08:11:37;-0.70;92.30
31979;DHT22;18502;43.574;1.276;2023-01-23T08:14:03;-0.70;92.30
31979;DHT22;18502;43.574;1.276;2023-01-23T08:16:28;-0.70;92.30
31979;DHT22;18502;43.574;1.276;2023-01-23T08:18:54;-0.70;92.30
31979;DHT22;18502;43.574;1.276;2023-01-23T08:21:20;-0.70;92.10
31979;DHT22;18502;43.574;1.276;2023-01-23T08:23:46;-0.70;92.20
31979;DHT22;18502;43.574;1.276;2023-01-23T08:26:13;-0.60;92.10
31979;DHT22;18502;43.574;1.276;2023-01-23T08:28:43;-0.60;92.20
31979;DHT22;18502;43.574;1.276;2023-01-23T08:31:10;-0.60;92.20
31979;DHT22;18502;43.574;1.276;2023-01-23T08:33:37;-0.60;92.20
31979;DHT22;18502;43.574;1.276;2023-01-23T08:36:04;-0.60;92.20
31979;DHT22;18502;43.574;1.276;2023-01-23T08:38:30;-0.60;92.10
31979;DHT22;18502;43.574;1.276;2023-01-23T08:40:59;-0.60;92.10
31979;DHT22;18502;43.574;1.276;2023-01-23T08:43:25;-0.60;92.20
31979;DHT22;18502;43.574;1.276;2023-01-23T08:45:53;-0.60;92.30
31979;DHT22;18502;43.574;1.276;2023-01-23T08:48:20;-0.60;92.20
31979;DHT22;18502;43.574;1.276;2023-01-23T08:50:47;-0.50;92.30
31979;DHT22;18502;43.574;1.276;2023-01-23T08:53:12;-0.50;92.20
31979;DHT22;18502;43.574;1.276;2023-01-23T08:55:39;-0.50;92.30
31979;DHT22;18502;43.574;1.276;2023-01-23T08:58:06;-0.50;92.60
31979;DHT22;18502;43.574;1.276;2023-01-23T09:00:33;-0.50;92.40
31979;DHT22;18502;43.574;1.276;2023-01-23T09:03:00;-0.40;92.30
31979;DHT22;18502;43.574;1.276;2023-01-23T09:05:27;-0.40;92.70
31979;DHT22;18502;43.574;1.276;2023-01-23T09:07:54;-0.40;95.80
31979;DHT22;18502;43.574;1.276;2023-01-23T09:10:20;-0.40;95.10
31979;DHT22;18502;43.574;1.276;2023-01-23T09:12:45;-0.40;94.50
31979;DHT22;18502;43.574;1.276;2023-01-23T09:15:11;-0.40;93.60
31979;DHT22;18502;43.574;1.276;2023-01-23T09:17:37;-0.40;92.90
31979;DHT22;18502;43.574;1.276;2023-01-23T09:20:03;-0.40;92.80
31979;DHT22;18502;43.574;1.276;2023-01-23T09:22:31;-0.40;92.90
31979;DHT22;18502;43.574;1.276;2023-01-23T09:24:57;-0.30;93.00
31979;DHT22;18502;43.574;1.276;2023-01-23T09:27:23;-0.30;92.70
31979;DHT22;18502;43.574;1.276;2023-01-23T09:29:49;-0.30;92.90
31979;DHT22;18502;43.574;1.276;2023-01-23T09:32:15;-0.30;92.80
31979;DHT22;18502;43.574;1.276;2023-01-23T09:34:41;-0.30;92.80
31979;DHT22;18502;43.574;1.276;2023-01-23T09:37:07;-0.30;92.80
31979;DHT22;18502;43.574;1.276;2023-01-23T09:39:32;-0.30;92.60
31979;DHT22;18502;43.574;1.276;2023-01-23T09:42:02;-0.30;92.70
31979;DHT22;18502;43.574;1.276;2023-01-23T09:50:43;-0.30;93.20
31979;DHT22;18502;43.574;1.276;2023-01-23T09:53:07;-0.40;93.00
31979;DHT22;18502;43.574;1.276;2023-01-23T09:55:42;-0.40;92.90
31979;DHT22;18502;43.574;1.276;2023-01-23T09:58:24;-0.30;93.00
31979;DHT22;18502;43.574;1.276;2023-01-23T10:00:52;-0.30;93.10
31979;DHT22;18502;43.574;1.276;2023-01-23T10:03:18;-0.30;93.10
31979;DHT22;18502;43.574;1.276;2023-01-23T10:17:02;-0.30;94.10
31979;DHT22;18502;43.574;1.276;2023-01-23T10:22:32;-0.20;94.00
31979;DHT22;18502;43.574;1.276;2023-01-23T10:25:35;-0.30;93.50
31979;DHT22;18502;43.574;1.276;2023-01-23T10:27:55;-0.20;93.60
31979;DHT22;18502;43.574;1.276;2023-01-23T10:30:24;-0.20;93.90
31979;DHT22;18502;43.574;1.276;2023-01-23T10:32:58;-0.20;94.90
31979;DHT22;18502;43.574;1.276;2023-01-23T10:38:22;-0.20;93.70
31979;DHT22;18502;43.574;1.276;2023-01-23T10:40:49;-0.20;93.50
31979;DHT22;18502;43.574;1.276;2023-01-23T10:43:34;-0.20;93.90
31979;DHT22;18502;43.574;1.276;2023-01-23T10:46:00;-0.20;93.30
31979;DHT22;18502;43.574;1.276;2023-01-23T10:48:40;-0.10;93.40
31979;DHT22;18502;43.574;1.276;2023-01-23T10:56:33;-0.10;94.00
31979;DHT22;18502;43.574;1.276;2023-01-23T10:59:00;-0.20;94.10
31979;DHT22;18502;43.574;1.276;2023-01-23T11:01:29;-0.10;94.00
31979;DHT22;18502;43.574;1.276;2023-01-23T11:03:56;-0.20;94.00
31979;DHT22;18502;43.574;1.276;2023-01-23T11:06:22;-0.10;94.60
31979;DHT22;18502;43.574;1.276;2023-01-23T11:08:58;-0.10;93.70
31979;DHT22;18502;43.574;1.276;2023-01-23T11:11:29;0.00;93.90
31979;DHT22;18502;43.574;1.276;2023-01-23T11:14:13;0.00;93.50
31979;DHT22;18502;43.574;1.276;2023-01-23T11:16:41;0.00;93.80
31979;DHT22;18502;43.574;1.276;2023-01-23T11:21:51;0.00;93.10
31979;DHT22;18502;43.574;1.276;2023-01-23T11:26:57;0.00;93.20
31979;DHT22;18502;43.574;1.276;2023-01-23T11:29:26;0.10;92.80
31979;DHT22;18502;43.574;1.276;2023-01-23T11:31:59;0.10;92.80
31979;DHT22;18502;43.574;1.276;2023-01-23T11:34:31;0.10;92.70
31979;DHT22;18502;43.574;1.276;2023-01-23T11:42:16;0.00;92.80
31979;DHT22;18502;43.574;1.276;2023-01-23T11:44:44;0.10;92.80
31979;DHT22;18502;43.574;1.276;2023-01-23T11:47:29;0.10;92.80
31979;DHT22;18502;43.574;1.276;2023-01-23T11:50:21;0.20;92.90
31979;DHT22;18502;43.574;1.276;2023-01-23T11:53:17;0.10;92.50
31979;DHT22;18502;43.574;1.276;2023-01-23T11:56:06;0.20;95.20
31979;DHT22;18502;43.574;1.276;2023-01-23T12:02:26;0.10;92.90
31979;DHT22;18502;43.574;1.276;2023-01-23T12:07:20;0.10;92.90
31979;DHT22;18502;43.574;1.276;2023-01-23T12:18:19;0.00;92.90
31979;DHT22;18502;43.574;1.276;2023-01-23T12:21:02;0.10;93.10
31979;DHT22;18502;43.574;1.276;2023-01-23T12:26:28;0.00;93.10
31979;DHT22;18502;43.574;1.276;2023-01-23T12:40:08;0.10;92.90
31979;DHT22;18502;43.574;1.276;2023-01-23T12:42:49;0.10;92.70
31979;DHT22;18502;43.574;1.276;2023-01-23T12:45:23;0.20;92.90
31979;DHT22;18502;43.574;1.276;2023-01-23T12:50:35;0.10;92.90
31979;DHT22;18502;43.574;1.276;2023-01-23T12:53:13;0.20;92.90
31979;DHT22;18502;43.574;1.276;2023-01-23T12:58:18;0.20;93.10
31979;DHT22;18502;43.574;1.276;2023-01-23T13:03:37;0.10;92.80
31979;DHT22;18502;43.574;1.276;2023-01-23T13:12:21;0.10;93.10
31979;DHT22;18502;43.574;1.276;2023-01-23T13:15:36;0.10;92.70
31979;DHT22;18502;43.574;1.276;2023-01-23T13:17:46;0.10;93.00
31979;DHT22;18502;43.574;1.276;2023-01-23T13:20:21;0.10;93.10
31979;DHT22;18502;43.574;1.276;2023-01-23T13:23:34;0.10;93.00
31979;DHT22;18502;43.574;1.276;2023-01-23T13:28:54;0.10;93.00
31979;DHT22;18502;43.574;1.276;2023-01-23T13:31:44;0.20;93.10
31979;DHT22;18502;43.574;1.276;2023-01-23T13:36:49;0.20;93.10
31979;DHT22;18502;43.574;1.276;2023-01-23T13:39:28;0.20;93.00
31979;DHT22;18502;43.574;1.276;2023-01-23T13:45:23;0.20;92.70
31979;DHT22;18502;43.574;1.276;2023-01-23T13:50:52;0.30;93.10
31979;DHT22;18502;43.574;1.276;2023-01-23T13:53:24;0.20;92.90
31979;DHT22;18502;43.574;1.276;2023-01-23T13:56:16;0.20;92.90
31979;DHT22;18502;43.574;1.276;2023-01-23T14:00:03;0.20;93.00
31979;DHT22;18502;43.574;1.276;2023-01-23T14:05:07;0.20;93.00
31979;DHT22;18502;43.574;1.276;2023-01-23T14:07:43;0.30;93.10
31979;DHT22;18502;43.574;1.276;2023-01-23T14:10:18;0.20;93.00
31979;DHT22;18502;43.574;1.276;2023-01-23T14:12:46;0.20;93.00
31979;DHT22;18502;43.574;1.276;2023-01-23T14:18:15;0.20;93.00
31979;DHT22;18502;43.574;1.276;2023-01-23T14:20:43;0.20;93.00
31979;DHT22;18502;43.574;1.276;2023-01-23T14:23:38;0.30;92.90
31979;DHT22;18502;43.574;1.276;2023-01-23T14:26:09;0.20;93.00
31979;DHT22;18502;43.574;1.276;2023-01-23T14:28:36;0.20;93.00
31979;DHT22;18502;43.574;1.276;2023-01-23T14:31:04;0.20;93.10
31979;DHT22;18502;43.574;1.276;2023-01-23T14:33:42;0.20;92.80
31979;DHT22;18502;43.574;1.276;2023-01-23T14:36:16;0.20;92.90
31979;DHT22;18502;43.574;1.276;2023-01-23T14:38:44;0.30;92.90
31979;DHT22;18502;43.574;1.276;2023-01-23T14:41:11;0.20;93.00
31979;DHT22;18502;43.574;1.276;2023-01-23T14:43:37;0.20;93.00
31979;DHT22;18502;43.574;1.276;2023-01-23T14:46:12;0.30;93.10
31979;DHT22;18502;43.574;1.276;2023-01-23T14:48:41;0.30;93.10
31979;DHT22;18502;43.574;1.276;2023-01-23T14:51:24;0.30;93.20
31979;DHT22;18502;43.574;1.276;2023-01-23T14:54:05;0.30;93.10
31979;DHT22;18502;43.574;1.276;2023-01-23T14:56:41;0.30;93.50
31979;DHT22;18502;43.574;1.276;2023-01-23T14:59:18;0.20;93.30
31979;DHT22;18502;43.574;1.276;2023-01-23T15:07:50;0.20;93.30
31979;DHT22;18502;43.574;1.276;2023-01-23T15:10:22;0.20;93.30
31979;DHT22;18502;43.574;1.276;2023-01-23T15:15:22;0.30;93.30
31979;DHT22;18502;43.574;1.276;2023-01-23T15:17:49;0.20;93.30
31979;DHT22;18502;43.574;1.276;2023-01-23T15:20:37;0.20;93.20
31979;DHT22;18502;43.574;1.276;2023-01-23T15:25:45;0.20;93.20
31979;DHT22;18502;43.574;1.276;2023-01-23T15:28:31;0.20;93.40
31979;DHT22;18502;43.574;1.276;2023-01-23T15:31:01;0.20;93.50
31979;DHT22;18502;43.574;1.276;2023-01-23T15:33:31;0.20;93.40
31979;DHT22;18502;43.574;1.276;2023-01-23T15:36:07;0.20;93.40
31979;DHT22;18502;43.574;1.276;2023-01-23T15:38:33;0.20;93.40
31979;DHT22;18502;43.574;1.276;2023-01-23T15:41:06;0.30;93.50
31979;DHT22;18502;43.574;1.276;2023-01-23T15:43:32;0.30;93.20
31979;DHT22;18502;43.574;1.276;2023-01-23T15:45:57;0.30;93.30
31979;DHT22;18502;43.574;1.276;2023-01-23T15:48:23;0.30;93.30
31979;DHT22;18502;43.574;1.276;2023-01-23T15:50:49;0.30;93.40
31979;DHT22;18502;43.574;1.276;2023-01-23T15:53:15;0.30;93.40
31979;DHT22;18502;43.574;1.276;2023-01-23T15:55:41;0.30;93.50
31979;DHT22;18502;43.574;1.276;2023-01-23T15:58:13;0.20;93.50
31979;DHT22;18502;43.574;1.276;2023-01-23T16:00:39;0.20;93.60
31979;DHT22;18502;43.574;1.276;2023-01-23T16:03:05;0.20;93.60
31979;DHT22;18502;43.574;1.276;2023-01-23T16:05:35;0.20;93.50
31979;DHT22;18502;43.574;1.276;2023-01-23T16:08:01;0.20;93.60
31979;DHT22;18502;43.574;1.276;2023-01-23T16:10:34;0.20;93.70
31979;DHT22;18502;43.574;1.276;2023-01-23T16:13:01;0.20;93.90
31979;DHT22;18502;43.574;1.276;2023-01-23T16:15:29;0.20;93.70
31979;DHT22;18502;43.574;1.276;2023-01-23T16:17:57;0.20;93.70
31979;DHT22;18502;43.574;1.276;2023-01-23T16:20:27;0.10;93.70
31979;DHT22;18502;43.574;1.276;2023-01-23T16:22:55;0.20;93.70
31979;DHT22;18502;43.574;1.276;2023-01-23T16:25:27;0.10;93.80
31979;DHT22;18502;43.574;1.276;2023-01-23T16:27:53;0.10;93.70
31979;DHT22;18502;43.574;1.276;2023-01-23T16:30:20;0.10;93.80
31979;DHT22;18502;43.574;1.276;2023-01-23T16:32:46;0.20;94.20
31979;DHT22;18502;43.574;1.276;2023-01-23T16:35:14;0.10;94.00
31979;DHT22;18502;43.574;1.276;2023-01-23T16:37:42;0.10;94.00
31979;DHT22;18502;43.574;1.276;2023-01-23T16:40:23;0.10;93.90
31979;DHT22;18502;43.574;1.276;2023-01-23T16:42:50;0.10;94.10
31979;DHT22;18502;43.574;1.276;2023-01-23T16:45:17;0.10;94.00
31979;DHT22;18502;43.574;1.276;2023-01-23T16:47:44;0.20;94.00
31979;DHT22;18502;43.574;1.276;2023-01-23T16:50:15;0.20;94.00
31979;DHT22;18502;43.574;1.276;2023-01-23T16:52:42;0.20;93.90
31979;DHT22;18502;43.574;1.276;2023-01-23T16:55:21;0.20;94.00
31979;DHT22;18502;43.574;1.276;2023-01-23T16:57:52;0.20;94.00
31979;DHT22;18502;43.574;1.276;2023-01-23T17:00:19;0.10;93.90
31979;DHT22;18502;43.574;1.276;2023-01-23T17:02:57;0.10;94.10
31979;DHT22;18502;43.574;1.276;2023-01-23T17:05:23;0.10;94.20
31979;DHT22;18502;43.574;1.276;2023-01-23T17:07:49;0.20;94.10
31979;DHT22;18502;43.574;1.276;2023-01-23T17:10:16;0.10;94.00
31979;DHT22;18502;43.574;1.276;2023-01-23T17:12:42;0.10;94.00
31979;DHT22;18502;43.574;1.276;2023-01-23T17:15:29;0.10;94.10
31979;DHT22;18502;43.574;1.276;2023-01-23T17:17:57;0.10;94.10
31979;DHT22;18502;43.574;1.276;2023-01-23T17:20:25;0.10;94.20
31979;DHT22;18502;43.574;1.276;2023-01-23T17:22:53;0.10;94.10
31979;DHT22;18502;43.574;1.276;2023-01-23T17:25:21;0.20;94.20
31979;DHT22;18502;43.574;1.276;2023-01-23T17:27:48;0.20;94.20
31979;DHT22;18502;43.574;1.276;2023-01-23T17:30:19;0.20;94.20
31979;DHT22;18502;43.574;1.276;2023-01-23T17:32:49;0.20;94.20
31979;DHT22;18502;43.574;1.276;2023-01-23T17:35:21;0.20;94.20
31979;DHT22;18502;43.574;1.276;2023-01-23T17:37:52;0.20;94.30
31979;DHT22;18502;43.574;1.276;2023-01-23T17:40:18;0.10;94.20
31979;DHT22;18502;43.574;1.276;2023-01-23T17:42:44;0.20;94.30
31979;DHT22;18502;43.574;1.276;2023-01-23T17:45:14;0.20;94.40
31979;DHT22;18502;43.574;1.276;2023-01-23T17:47:42;0.20;94.30
31979;DHT22;18502;43.574;1.276;2023-01-23T17:50:20;0.20;94.30
31979;DHT22;18502;43.574;1.276;2023-01-23T17:52:47;0.20;94.30
31979;DHT22;18502;43.574;1.276;2023-01-23T17:55:25;0.20;94.20
31979;DHT22;18502;43.574;1.276;2023-01-23T17:57:56;0.20;94.30
31979;DHT22;18502;43.574;1.276;2023-01-23T18:00:22;0.20;94.30
31979;DHT22;18502;43.574;1.276;2023-01-23T18:02:56;0.20;94.20
31979;DHT22;18502;43.574;1.276;2023-01-23T18:05:23;0.20;94.20
31979;DHT22;18502;43.574;1.276;2023-01-23T18:07:50;0.20;94.10
31979;DHT22;18502;43.574;1.276;2023-01-23T18:10:16;0.30;94.30
31979;DHT22;18502;43.574;1.276;2023-01-23T18:18:11;0.20;94.30
31979;DHT22;18502;43.574;1.276;2023-01-23T18:20:40;0.20;94.30
31979;DHT22;18502;43.574;1.276;2023-01-23T18:23:11;0.20;94.30
31979;DHT22;18502;43.574;1.276;2023-01-23T18:25:43;0.30;94.30
31979;DHT22;18502;43.574;1.276;2023-01-23T18:28:16;0.30;94.10
31979;DHT22;18502;43.574;1.276;2023-01-23T18:41:43;0.30;94.30
31979;DHT22;18502;43.574;1.276;2023-01-23T18:44:15;0.30;94.20
31979;DHT22;18502;43.574;1.276;2023-01-23T18:46:43;0.30;94.10
31979;DHT22;18502;43.574;1.276;2023-01-23T18:49:12;0.30;94.20
31979;DHT22;18502;43.574;1.276;2023-01-23T18:51:44;0.30;94.10
31979;DHT22;18502;43.574;1.276;2023-01-23T18:54:36;0.30;94.20
31979;DHT22;18502;43.574;1.276;2023-01-23T19:02:57;0.30;94.20
31979;DHT22;18502;43.574;1.276;2023-01-23T19:05:33;0.30;94.30
31979;DHT22;18502;43.574;1.276;2023-01-23T19:07:59;0.30;94.30
31979;DHT22;18502;43.574;1.276;2023-01-23T19:10:31;0.30;94.20
31979;DHT22;18502;43.574;1.276;2023-01-23T19:13:22;0.30;94.30
31979;DHT22;18502;43.574;1.276;2023-01-23T19:16:08;0.30;94.30
31979;DHT22;18502;43.574;1.276;2023-01-23T19:19:15;0.30;94.30
31979;DHT22;18502;43.574;1.276;2023-01-23T19:21:45;0.30;94.30
31979;DHT22;18502;43.574;1.276;2023-01-23T19:24:10;0.30;94.30
31979;DHT22;18502;43.574;1.276;2023-01-23T19:26:38;0.30;94.30
31979;DHT22;18502;43.574;1.276;2023-01-23T19:29:07;0.30;94.30
31979;DHT22;18502;43.574;1.276;2023-01-23T19:31:35;0.30;94.30
31979;DHT22;18502;43.574;1.276;2023-01-23T19:34:02;0.30;94.30
31979;DHT22;18502;43.574;1.276;2023-01-23T19:36:30;0.30;94.30
31979;DHT22;18502;43.574;1.276;2023-01-23T19:38:56;0.30;94.40
31979;DHT22;18502;43.574;1.276;2023-01-23T19:44:05;0.30;94.30
31979;DHT22;18502;43.574;1.276;2023-01-23T19:46:32;0.30;94.40
31979;DHT22;18502;43.574;1.276;2023-01-23T19:48:59;0.30;94.30
31979;DHT22;18502;43.574;1.276;2023-01-23T19:51:29;0.30;94.30
31979;DHT22;18502;43.574;1.276;2023-01-23T19:53:55;0.30;94.30
31979;DHT22;18502;43.574;1.276;2023-01-23T19:56:21;0.30;94.30
31979;DHT22;18502;43.574;1.276;2023-01-23T19:58:47;0.30;94.40
31979;DHT22;18502;43.574;1.276;2023-01-23T20:03:50;0.30;94.30
31979;DHT22;18502;43.574;1.276;2023-01-23T20:06:16;0.30;94.40
31979;DHT22;18502;43.574;1.276;2023-01-23T20:08:42;0.30;94.40
31979;DHT22;18502;43.574;1.276;2023-01-23T20:11:11;0.30;94.50
31979;DHT22;18502;43.574;1.276;2023-01-23T20:13:38;0.30;94.50
31979;DHT22;18502;43.574;1.276;2023-01-23T20:16:16;0.30;94.50
31979;DHT22;18502;43.574;1.276;2023-01-23T20:18:46;0.30;94.40
31979;DHT22;18502;43.574;1.276;2023-01-23T20:21:14;0.30;94.50
31979;DHT22;18502;43.574;1.276;2023-01-23T20:23:40;0.30;94.40
31979;DHT22;18502;43.574;1.276;2023-01-23T20:26:07;0.40;94.40
31979;DHT22;18502;43.574;1.276;2023-01-23T20:28:32;0.30;94.40
31979;DHT22;18502;43.574;1.276;2023-01-23T20:31:07;0.40;94.40
31979;DHT22;18502;43.574;1.276;2023-01-23T20:33:33;0.40;94.40
31979;DHT22;18502;43.574;1.276;2023-01-23T20:35:59;0.40;94.40
31979;DHT22;18502;43.574;1.276;2023-01-23T20:38:25;0.40;94.50
31979;DHT22;18502;43.574;1.276;2023-01-23T20:40:51;0.40;94.30
31979;DHT22;18502;43.574;1.276;2023-01-23T20:43:17;0.40;94.30
31979;DHT22;18502;43.574;1.276;2023-01-23T20:45:50;0.40;94.40
31979;DHT22;18502;43.574;1.276;2023-01-23T20:48:17;0.40;94.50
31979;DHT22;18502;43.574;1.276;2023-01-23T20:50:43;0.40;94.40
31979;DHT22;18502;43.574;1.276;2023-01-23T20:53:13;0.40;94.50
31979;DHT22;18502;43.574;1.276;2023-01-23T20:56:02;0.40;94.60
31979;DHT22;18502;43.574;1.276;2023-01-23T20:58:29;0.40;94.50
31979;DHT22;18502;43.574;1.276;2023-01-23T21:01:15;0.40;94.50
31979;DHT22;18502;43.574;1.276;2023-01-23T21:03:41;0.30;94.50
31979;DHT22;18502;43.574;1.276;2023-01-23T21:06:09;0.40;94.50
31979;DHT22;18502;43.574;1.276;2023-01-23T21:08:35;0.30;94.60
31979;DHT22;18502;43.574;1.276;2023-01-23T21:11:11;0.30;94.80
31979;DHT22;18502;43.574;1.276;2023-01-23T21:13:37;0.40;95.00
31979;DHT22;18502;43.574;1.276;2023-01-23T21:16:12;0.40;94.80
31979;DHT22;18502;43.574;1.276;2023-01-23T21:18:40;0.40;95.00
31979;DHT22;18502;43.574;1.276;2023-01-23T21:21:10;0.40;94.60
31979;DHT22;18502;43.574;1.276;2023-01-23T21:23:36;0.40;94.60
31979;DHT22;18502;43.574;1.276;2023-01-23T21:26:03;0.40;94.70
31979;DHT22;18502;43.574;1.276;2023-01-23T21:28:31;0.40;94.60
31979;DHT22;18502;43.574;1.276;2023-01-23T21:30:57;0.40;94.60
31979;DHT22;18502;43.574;1.276;2023-01-23T21:33:23;0.40;94.40
31979;DHT22;18502;43.574;1.276;2023-01-23T21:35:53;0.30;95.50
31979;DHT22;18502;43.574;1.276;2023-01-23T21:38:19;0.40;95.30
31979;DHT22;18502;43.574;1.276;2023-01-23T21:40:45;0.40;95.40
31979;DHT22;18502;43.574;1.276;2023-01-23T21:43:11;0.30;95.60
31979;DHT22;18502;43.574;1.276;2023-01-23T21:45:37;0.40;95.70
31979;DHT22;18502;43.574;1.276;2023-01-23T21:48:03;0.30;96.00
31979;DHT22;18502;43.574;1.276;2023-01-23T21:50:29;0.30;95.80
31979;DHT22;18502;43.574;1.276;2023-01-23T21:52:54;0.40;95.70
31979;DHT22;18502;43.574;1.276;2023-01-23T21:55:20;0.40;95.50
31979;DHT22;18502;43.574;1.276;2023-01-23T21:57:46;0.40;95.40
31979;DHT22;18502;43.574;1.276;2023-01-23T22:00:12;0.40;95.30
31979;DHT22;18502;43.574;1.276;2023-01-23T22:02:56;0.40;95.40
31979;DHT22;18502;43.574;1.276;2023-01-23T22:05:22;0.40;95.50
31979;DHT22;18502;43.574;1.276;2023-01-23T22:07:47;0.40;95.50
31979;DHT22;18502;43.574;1.276;2023-01-23T22:10:14;0.40;95.50
31979;DHT22;18502;43.574;1.276;2023-01-23T22:12:40;0.40;95.40
31979;DHT22;18502;43.574;1.276;2023-01-23T22:15:06;0.40;95.40
31979;DHT22;18502;43.574;1.276;2023-01-23T22:17:33;0.40;95.50
31979;DHT22;18502;43.574;1.276;2023-01-23T22:19:59;0.40;95.60
31979;DHT22;18502;43.574;1.276;2023-01-23T22:22:24;0.40;95.50
31979;DHT22;18502;43.574;1.276;2023-01-23T22:24:50;0.40;95.60
31979;DHT22;18502;43.574;1.276;2023-01-23T22:27:16;0.40;95.50
31979;DHT22;18502;43.574;1.276;2023-01-23T22:29:42;0.40;95.60
31979;DHT22;18502;43.574;1.276;2023-01-23T22:32:08;0.40;95.40
31979;DHT22;18502;43.574;1.276;2023-01-23T22:34:34;0.40;95.60
31979;DHT22;18502;43.574;1.276;2023-01-23T22:37:00;0.40;95.70
31979;DHT22;18502;43.574;1.276;2023-01-23T22:39:25;0.40;95.80
31979;DHT22;18502;43.574;1.276;2023-01-23T22:41:51;0.40;95.70
31979;DHT22;18502;43.574;1.276;2023-01-23T22:44:17;0.40;95.70
31979;DHT22;18502;43.574;1.276;2023-01-23T22:46:43;0.40;95.80
31979;DHT22;18502;43.574;1.276;2023-01-23T22:49:08;0.40;95.80
31979;DHT22;18502;43.574;1.276;2023-01-23T22:51:35;0.40;95.80
31979;DHT22;18502;43.574;1.276;2023-01-23T22:54:01;0.40;95.80
31979;DHT22;18502;43.574;1.276;2023-01-23T22:56:27;0.40;95.80
31979;DHT22;18502;43.574;1.276;2023-01-23T22:58:54;0.40;95.90
31979;DHT22;18502;43.574;1.276;2023-01-23T23:01:21;0.40;95.90
31979;DHT22;18502;43.574;1.276;2023-01-23T23:03:51;0.40;95.90
31979;DHT22;18502;43.574;1.276;2023-01-23T23:06:17;0.40;96.00
31979;DHT22;18502;43.574;1.276;2023-01-23T23:08:44;0.40;95.90
31979;DHT22;18502;43.574;1.276;2023-01-23T23:11:22;0.40;95.90
31979;DHT22;18502;43.574;1.276;2023-01-23T23:13:48;0.40;95.90
31979;DHT22;18502;43.574;1.276;2023-01-23T23:16:17;0.40;95.90
31979;DHT22;18502;43.574;1.276;2023-01-23T23:18:44;0.40;95.90
31979;DHT22;18502;43.574;1.276;2023-01-23T23:21:13;0.40;95.90
31979;DHT22;18502;43.574;1.276;2023-01-23T23:23:39;0.40;96.00
31979;DHT22;18502;43.574;1.276;2023-01-23T23:26:07;0.40;96.00
31979;DHT22;18502;43.574;1.276;2023-01-23T23:28:33;0.40;96.00
31979;DHT22;18502;43.574;1.276;2023-01-23T23:30:59;0.40;96.00
31979;DHT22;18502;43.574;1.276;2023-01-23T23:33:25;0.40;96.00
31979;DHT22;18502;43.574;1.276;2023-01-23T23:35:51;0.40;96.00
31979;DHT22;18502;43.574;1.276;2023-01-23T23:38:17;0.40;96.00
31979;DHT22;18502;43.574;1.276;2023-01-23T23:40:51;0.40;96.10
31979;DHT22;18502;43.574;1.276;2023-01-23T23:43:17;0.40;96.20
31979;DHT22;18502;43.574;1.276;2023-01-23T23:45:50;0.40;96.10
31979;DHT22;18502;43.574;1.276;2023-01-23T23:48:16;0.40;96.20
31979;DHT22;18502;43.574;1.276;2023-01-23T23:50:42;0.40;96.10
31979;DHT22;18502;43.574;1.276;2023-01-23T23:53:07;0.40;96.10
31979;DHT22;18502;43.574;1.276;2023-01-23T23:55:33;0.40;96.20
31979;DHT22;18502;43.574;1.276;2023-01-23T23:57:59;0.40;96.20
